createdAt,value
2023-04-23T00:00:25.767Z,3.88
2023-04-23T00:02:54.407Z,2.92
2023-04-23T00:05:23.414Z,3.28
2023-04-23T00:07:50.536Z,3.33
2023-04-23T00:10:18.302Z,3.20
2023-04-23T00:12:45.940Z,3.42
2023-04-23T00:15:14.242Z,2.97
2023-04-23T00:17:41.284Z,3.25
2023-04-23T00:20:09.318Z,3.00
2023-04-23T00:22:36.585Z,2.78
2023-04-23T00:25:03.958Z,2.95
2023-04-23T00:27:31.022Z,3.08
2023-04-23T00:29:58.190Z,3.15
2023-04-23T00:32:25.221Z,3.17
2023-04-23T00:34:52.378Z,3.00
2023-04-23T00:37:19.430Z,2.92
2023-04-23T00:40:54.594Z,3.38
2023-04-23T00:43:21.603Z,3.15
2023-04-23T00:45:49.507Z,4.63
2023-04-23T00:48:16.927Z,3.10
2023-04-23T00:50:43.931Z,5.50
2023-04-23T00:53:11.077Z,4.85
2023-04-23T00:55:38.216Z,4.07
2023-04-23T00:58:06.952Z,7.07
2023-04-23T01:00:40.077Z,4.40
2023-04-23T01:03:07.309Z,3.45
2023-04-23T01:05:34.462Z,4.35
2023-04-23T01:08:01.549Z,5.35
2023-04-23T01:10:28.599Z,4.32
2023-04-23T01:12:55.662Z,4.20
2023-04-23T01:15:22.660Z,3.38
2023-04-23T01:17:49.861Z,4.30
2023-04-23T01:20:17.554Z,4.00
2023-04-23T01:22:44.606Z,3.95
2023-04-23T01:25:11.751Z,4.43
2023-04-23T01:27:39.196Z,3.13
2023-04-23T01:30:07.711Z,3.40
2023-04-23T01:32:35.585Z,3.55
2023-04-23T01:35:04.708Z,3.75
2023-04-23T01:37:33.506Z,3.20
2023-04-23T01:40:01.208Z,3.72
2023-04-23T01:42:28.457Z,4.15
2023-04-23T01:44:55.587Z,4.25
2023-04-23T01:47:22.858Z,3.50
2023-04-23T01:49:50.064Z,3.60
2023-04-23T01:52:17.072Z,3.30
2023-04-23T01:54:44.244Z,3.00
2023-04-23T01:57:11.493Z,3.63
2023-04-23T01:59:40.509Z,3.67
2023-04-23T02:02:11.172Z,3.53
2023-04-23T02:04:41.248Z,3.42
2023-04-23T02:07:09.130Z,3.75
2023-04-23T02:09:36.174Z,3.72
2023-04-23T02:12:03.347Z,3.40
2023-04-23T02:14:30.561Z,3.40
2023-04-23T02:16:57.932Z,3.35
2023-04-23T02:19:25.092Z,3.70
2023-04-23T02:21:52.225Z,3.47
2023-04-23T02:24:19.295Z,3.65
2023-04-23T02:26:47.544Z,3.40
2023-04-23T02:29:15.735Z,3.50
2023-04-23T02:31:42.832Z,3.80
2023-04-23T02:34:09.876Z,3.80
2023-04-23T02:36:36.944Z,3.92
2023-04-23T02:39:04.289Z,3.65
2023-04-23T02:41:31.404Z,3.60
2023-04-23T02:43:58.684Z,3.35
2023-04-23T02:46:25.746Z,3.30
2023-04-23T02:48:52.762Z,4.18
2023-04-23T02:51:19.882Z,3.38
2023-04-23T02:53:47.008Z,3.35
2023-04-23T02:56:14.083Z,4.03
2023-04-23T02:58:41.206Z,3.53
2023-04-23T03:01:08.284Z,3.80
2023-04-23T03:03:35.770Z,3.30
2023-04-23T03:06:06.823Z,3.28
2023-04-23T03:08:34.085Z,3.70
2023-04-23T03:11:01.077Z,3.83
2023-04-23T03:13:28.392Z,4.05
2023-04-23T03:15:56.269Z,3.67
2023-04-23T03:18:23.449Z,4.15
2023-04-23T03:20:53.444Z,4.82
2023-04-23T03:23:20.572Z,4.03
2023-04-23T03:25:48.547Z,3.92
2023-04-23T03:28:15.714Z,4.18
2023-04-23T03:30:43.141Z,4.40
2023-04-23T03:33:10.212Z,4.25
2023-04-23T03:35:37.755Z,4.00
2023-04-23T03:38:09.459Z,4.93
2023-04-23T03:40:37.196Z,4.95
2023-04-23T03:43:06.905Z,4.10
2023-04-23T03:45:53.895Z,4.15
2023-04-23T03:48:21.899Z,4.57
2023-04-23T03:50:49.533Z,4.20
2023-04-23T03:53:31.986Z,4.53
2023-04-23T03:56:17.848Z,3.97
2023-04-23T03:58:54.503Z,3.72
2023-04-23T04:01:22.495Z,4.30
2023-04-23T04:03:50.915Z,4.00
2023-04-23T04:06:18.068Z,5.53
2023-04-23T04:08:45.107Z,4.00
2023-04-23T04:11:12.166Z,3.83
2023-04-23T04:13:39.169Z,4.10
2023-04-23T04:16:06.579Z,3.85
2023-04-23T04:18:33.700Z,3.97
2023-04-23T04:21:01.020Z,3.70
2023-04-23T04:23:28.804Z,3.92
2023-04-23T04:25:57.827Z,3.70
2023-04-23T04:28:25.452Z,4.78
2023-04-23T04:30:57.779Z,4.38
2023-04-23T04:33:26.135Z,3.35
2023-04-23T04:35:54.907Z,4.15
2023-04-23T04:38:22.424Z,3.92
2023-04-23T04:40:50.670Z,3.00
2023-04-23T04:43:18.585Z,3.67
2023-04-23T04:45:45.601Z,4.32
2023-04-23T04:48:12.705Z,3.03
2023-04-23T04:50:39.895Z,3.47
2023-04-23T04:53:06.870Z,3.95
2023-04-23T04:55:33.893Z,3.03
2023-04-23T04:58:00.944Z,3.38
2023-04-23T05:00:29.880Z,3.58
2023-04-23T05:03:00.102Z,4.57
2023-04-23T05:05:27.900Z,3.28
2023-04-23T05:07:55.237Z,4.10
2023-04-23T05:10:22.305Z,4.38
2023-04-23T05:12:52.093Z,4.20
2023-04-23T05:15:19.331Z,4.53
2023-04-23T05:17:46.532Z,3.08
2023-04-23T05:20:14.435Z,3.05
2023-04-23T05:22:42.807Z,3.22
2023-04-23T05:25:12.264Z,3.15
2023-04-23T05:27:40.029Z,2.90
2023-04-23T05:30:09.602Z,2.78
2023-04-23T05:32:37.218Z,3.05
2023-04-23T05:35:05.051Z,3.83
2023-04-23T05:37:32.185Z,2.60
2023-04-23T05:43:12.827Z,3.22
2023-04-23T05:45:39.886Z,2.90
2023-04-23T05:48:07.059Z,2.67
2023-04-23T05:50:34.058Z,3.08
2023-04-23T05:53:01.105Z,3.03
2023-04-23T05:55:28.161Z,2.80
2023-04-23T05:57:55.135Z,2.50
2023-04-23T06:00:22.209Z,2.45
2023-04-23T06:02:49.559Z,3.13
2023-04-23T06:05:16.973Z,3.03
2023-04-23T06:07:44.099Z,2.83
2023-04-23T06:10:43.652Z,2.78
2023-04-23T06:13:11.232Z,2.42
2023-04-23T06:15:38.818Z,2.58
2023-04-23T06:18:06.347Z,4.50
2023-04-23T06:20:33.433Z,2.38
2023-04-23T06:23:00.951Z,2.72
2023-04-23T06:25:27.947Z,2.60
2023-04-23T06:27:54.962Z,2.60
2023-04-23T06:30:25.613Z,2.92
2023-04-23T06:32:53.311Z,4.68
2023-04-23T06:35:20.751Z,2.20
2023-04-23T06:37:47.735Z,2.58
2023-04-23T06:40:15.158Z,5.60
2023-04-23T06:42:42.818Z,5.90
2023-04-23T06:45:17.861Z,5.50
2023-04-23T06:47:45.371Z,9.02
2023-04-23T06:50:12.486Z,8.75
2023-04-23T06:52:39.561Z,8.10
2023-04-23T06:55:07.446Z,8.52
2023-04-23T06:57:34.455Z,8.05
2023-04-23T07:00:01.549Z,9.65
2023-04-23T07:02:34.837Z,7.30
2023-04-23T07:05:34.090Z,7.35
2023-04-23T07:08:01.223Z,5.97
2023-04-23T07:10:28.486Z,6.32
2023-04-23T07:12:55.529Z,4.22
2023-04-23T07:15:22.752Z,4.03
2023-04-23T07:17:49.873Z,4.35
2023-04-23T07:20:16.953Z,4.05
2023-04-23T07:22:44.454Z,4.47
2023-04-23T07:25:11.558Z,4.47
2023-04-23T07:27:38.594Z,7.43
2023-04-23T07:30:06.708Z,7.75
2023-04-23T07:32:33.762Z,9.23
2023-04-23T07:35:00.866Z,8.15
2023-04-23T07:37:27.989Z,7.72
2023-04-23T07:39:55.041Z,7.43
2023-04-23T07:42:22.114Z,6.47
2023-04-23T07:44:49.127Z,8.65
2023-04-23T07:47:16.116Z,9.93
2023-04-23T07:49:43.906Z,8.57
2023-04-23T07:52:11.612Z,6.85
2023-04-23T07:54:38.728Z,6.78
2023-04-23T07:57:05.939Z,8.48
2023-04-23T07:59:33.052Z,6.20
2023-04-23T08:02:00.177Z,5.75
2023-04-23T08:04:27.447Z,5.68
2023-04-23T08:06:54.710Z,4.68
2023-04-23T08:09:21.814Z,5.90
2023-04-23T08:11:48.940Z,4.45
2023-04-23T08:14:16.126Z,4.43
2023-04-23T08:16:43.577Z,4.82
2023-04-23T08:19:10.653Z,4.90
2023-04-23T08:21:39.171Z,5.88
2023-04-23T08:24:08.099Z,4.70
2023-04-23T08:26:35.247Z,5.18
2023-04-23T08:29:03.439Z,4.95
2023-04-23T08:31:30.621Z,5.07
2023-04-23T08:33:58.107Z,5.10
2023-04-23T08:36:26.284Z,4.40
2023-04-23T08:38:53.326Z,4.00
2023-04-23T08:41:23.941Z,4.50
2023-04-23T08:44:02.633Z,4.00
2023-04-23T08:46:33.088Z,4.30
2023-04-23T08:49:03.091Z,4.00
2023-04-23T08:51:30.993Z,3.80
2023-04-23T08:54:03.105Z,4.60
2023-04-23T08:56:30.741Z,4.47
2023-04-23T08:58:58.899Z,4.85
2023-04-23T09:01:26.057Z,4.28
2023-04-23T09:03:54.252Z,3.35
2023-04-23T09:06:22.073Z,4.30
2023-04-23T09:08:49.231Z,4.47
2023-04-23T09:11:18.263Z,4.05
2023-04-23T09:13:45.830Z,4.05
2023-04-23T09:16:12.948Z,4.75
2023-04-23T09:18:40.131Z,5.00
2023-04-23T09:21:07.661Z,3.70
2023-04-23T09:23:34.910Z,3.33
2023-04-23T09:26:06.668Z,3.22
2023-04-23T09:28:37.921Z,3.10
2023-04-23T09:31:08.261Z,2.58
2023-04-23T09:33:36.485Z,2.35
2023-04-23T09:36:15.755Z,3.40
2023-04-23T09:38:42.759Z,2.30
2023-04-23T09:41:29.900Z,3.20
2023-04-23T10:16:35.589Z,1.30
2023-04-23T10:19:13.589Z,1.45
2023-04-23T10:21:50.413Z,1.90
2023-04-23T10:24:23.400Z,2.05
2023-04-23T10:26:54.192Z,2.47
2023-04-23T10:29:30.980Z,1.90
2023-04-23T10:32:00.529Z,2.50
2023-04-23T10:34:29.355Z,2.78
2023-04-23T10:36:57.705Z,2.50
2023-04-23T10:39:29.993Z,2.40
2023-04-23T10:41:59.002Z,2.63
2023-04-23T10:47:13.427Z,4.03
2023-04-23T10:49:40.942Z,3.30
2023-04-23T10:52:20.026Z,3.38
2023-04-23T10:54:50.711Z,3.20
2023-04-23T10:57:17.709Z,3.47
2023-04-23T10:59:56.478Z,2.65
2023-04-23T11:02:24.873Z,3.58
2023-04-23T11:04:57.480Z,3.10
2023-04-23T11:07:32.967Z,3.13
2023-04-23T11:10:11.188Z,3.25
2023-04-23T11:12:39.914Z,2.30
2023-04-23T11:15:12.374Z,2.10
2023-04-23T11:17:39.353Z,2.63
2023-04-23T11:20:14.274Z,2.50
2023-04-23T11:22:48.903Z,2.55
2023-04-23T11:25:28.705Z,2.70
2023-04-23T11:27:58.683Z,2.58
2023-04-23T11:30:30.610Z,2.80
2023-04-23T11:33:00.418Z,2.88
2023-04-23T11:35:28.990Z,2.80
2023-04-23T11:37:57.210Z,2.80
2023-04-23T11:40:24.492Z,2.28
2023-04-23T11:42:53.894Z,3.00
2023-04-23T11:45:29.031Z,2.78
2023-04-23T11:47:59.177Z,3.10
2023-04-23T11:50:31.164Z,2.97
2023-04-23T11:52:58.784Z,2.10
2023-04-23T11:55:26.667Z,1.92
2023-04-23T11:57:53.750Z,2.08
2023-04-23T12:00:23.506Z,1.70
2023-04-23T12:02:52.382Z,1.20
2023-04-23T12:05:29.776Z,1.40
2023-04-23T12:08:20.536Z,1.65
2023-04-23T12:10:52.025Z,1.40
2023-04-23T12:13:36.108Z,1.80
2023-04-23T12:16:05.313Z,1.90
2023-04-23T12:18:33.548Z,1.80
2023-04-23T12:21:07.939Z,1.70
2023-04-23T12:23:36.746Z,1.70
2023-04-23T12:26:04.658Z,2.22
2023-04-23T12:28:31.760Z,2.00
2023-04-23T12:31:03.103Z,2.28
2023-04-23T12:33:31.186Z,1.75
2023-04-23T12:35:58.627Z,2.38
2023-04-23T12:38:27.775Z,1.60
2023-04-23T12:40:56.818Z,1.92
2023-04-23T12:43:25.032Z,2.10
2023-04-23T12:45:53.120Z,2.50
2023-04-23T12:48:20.282Z,2.30
2023-04-23T12:50:48.499Z,2.13
2023-04-23T12:53:15.956Z,3.38
2023-04-23T12:55:44.425Z,3.17
2023-04-23T12:58:11.640Z,2.50
2023-04-23T13:00:39.130Z,2.92
2023-04-23T13:03:06.302Z,3.53
2023-04-23T13:05:33.514Z,2.17
2023-04-23T13:08:00.484Z,2.15
2023-04-23T13:10:27.989Z,3.03
2023-04-23T13:12:55.206Z,2.72
2023-04-23T13:15:22.206Z,2.25
2023-04-23T13:17:49.297Z,2.78
2023-04-23T13:20:16.304Z,2.78
2023-04-23T13:22:43.301Z,2.47
2023-04-23T13:25:10.723Z,2.30
2023-04-23T13:27:37.807Z,2.42
2023-04-23T13:30:06.178Z,2.33
2023-04-23T13:32:33.475Z,2.72
2023-04-23T13:35:02.973Z,3.00
2023-04-23T13:37:31.562Z,2.88
2023-04-23T13:39:58.656Z,2.50
2023-04-23T13:42:25.761Z,2.55
2023-04-23T13:44:52.926Z,2.60
2023-04-23T13:47:20.030Z,2.38
2023-04-23T13:49:48.085Z,2.75
2023-04-23T13:52:15.159Z,2.75
2023-04-23T13:54:42.504Z,2.88
2023-04-23T13:57:09.715Z,2.92
2023-04-23T13:59:36.765Z,2.90
2023-04-23T14:02:03.890Z,2.55
2023-04-23T14:04:31.231Z,2.70
2023-04-23T14:06:58.305Z,2.83
2023-04-23T14:09:25.433Z,3.10
2023-04-23T14:11:52.572Z,3.20
2023-04-23T14:14:19.689Z,2.60
2023-04-23T14:16:46.755Z,3.03
2023-04-23T14:19:13.937Z,3.75
2023-04-23T14:21:41.798Z,2.80
2023-04-23T14:24:16.916Z,3.03
2023-04-23T14:26:49.155Z,3.13
2023-04-23T14:29:28.045Z,3.63
2023-04-23T14:31:55.165Z,3.30
2023-04-23T14:34:22.588Z,3.30
2023-04-23T14:36:49.889Z,3.03
2023-04-23T14:39:17.227Z,2.70
2023-04-23T14:41:44.849Z,3.58
2023-04-23T14:44:11.973Z,2.70
2023-04-23T14:46:39.097Z,2.88
2023-04-23T14:49:06.631Z,2.80
2023-04-23T14:51:33.714Z,3.45
2023-04-23T14:54:00.870Z,3.45
2023-04-23T14:56:27.977Z,2.78
2023-04-23T14:58:55.085Z,2.65
2023-04-23T15:01:22.167Z,2.20
2023-04-23T15:03:49.538Z,2.80
2023-04-23T15:06:16.764Z,3.58
2023-04-23T15:08:43.771Z,2.83
2023-04-23T15:11:15.654Z,2.60
2023-04-23T15:13:42.649Z,2.50
2023-04-23T15:16:36.502Z,2.83
2023-04-23T15:19:11.791Z,3.33
2023-04-23T15:21:39.396Z,3.45
2023-04-23T15:24:07.983Z,3.00
2023-04-23T15:26:36.452Z,2.85
2023-04-23T15:29:04.794Z,2.50
2023-04-23T15:31:32.142Z,2.90
2023-04-23T15:33:59.264Z,2.67
2023-04-23T15:36:26.424Z,2.95
2023-04-23T15:38:53.401Z,2.90
2023-04-23T15:41:20.377Z,2.90
2023-04-23T15:43:48.948Z,2.78
2023-04-23T15:46:16.025Z,3.22
2023-04-23T15:48:44.142Z,3.28
2023-04-23T15:51:11.189Z,3.10
2023-04-23T15:53:38.303Z,3.65
2023-04-23T15:56:05.412Z,3.60
2023-04-23T15:58:32.540Z,3.97
2023-04-23T16:00:59.602Z,3.97
2023-04-23T16:03:26.897Z,3.95
2023-04-23T16:05:54.179Z,3.55
2023-04-23T16:08:22.081Z,4.00
2023-04-23T16:10:49.085Z,3.78
2023-04-23T16:13:16.143Z,3.85
2023-04-23T16:15:43.275Z,3.97
2023-04-23T16:18:10.394Z,3.53
2023-04-23T16:20:37.451Z,3.92
2023-04-23T16:23:04.541Z,4.20
2023-04-23T16:25:31.603Z,4.82
2023-04-23T16:27:58.988Z,4.10
2023-04-23T16:30:26.106Z,4.55
2023-04-23T16:32:53.252Z,3.92
2023-04-23T16:35:20.514Z,4.10
2023-04-23T16:37:47.586Z,3.92
2023-04-23T16:40:15.884Z,3.20
2023-04-23T16:42:43.668Z,2.30
2023-04-23T16:45:11.574Z,3.72
2023-04-23T16:47:38.801Z,2.45
2023-04-23T16:50:06.452Z,2.67
2023-04-23T16:52:33.494Z,2.55
2023-04-23T16:55:00.771Z,2.47
2023-04-23T16:57:28.375Z,2.20
2023-04-23T16:59:55.361Z,4.55
2023-04-23T17:02:22.375Z,2.78
2023-04-23T17:04:49.775Z,2.92
2023-04-23T17:07:17.242Z,3.45
2023-04-23T17:09:44.402Z,3.60
2023-04-23T17:12:11.566Z,4.32
2023-04-23T17:14:38.653Z,3.35
2023-04-23T17:17:05.746Z,3.75
2023-04-23T17:19:33.092Z,4.07
2023-04-23T17:22:01.308Z,3.85
2023-04-23T17:24:28.332Z,4.22
2023-04-23T17:26:55.402Z,3.00
2023-04-23T17:29:22.874Z,3.35
2023-04-23T17:31:50.437Z,3.70
2023-04-23T17:34:17.473Z,3.47
2023-04-23T17:36:44.509Z,3.40
2023-04-23T17:39:11.705Z,3.25
2023-04-23T17:41:38.800Z,3.33
2023-04-23T17:44:05.895Z,3.42
2023-04-23T17:46:33.083Z,3.80
2023-04-23T17:49:00.389Z,3.90
2023-04-23T17:51:27.618Z,3.92
2023-04-23T17:53:54.925Z,4.95
2023-04-23T17:56:22.292Z,4.05
2023-04-23T17:58:49.448Z,4.47
2023-04-23T18:01:17.867Z,3.75
2023-04-23T18:03:45.393Z,3.80
2023-04-23T18:06:12.519Z,3.33
2023-04-23T18:08:41.914Z,4.15
2023-04-23T18:11:09.744Z,3.05
2023-04-23T18:13:36.838Z,3.13
2023-04-23T18:16:04.011Z,2.95
2023-04-23T18:18:31.011Z,3.75
2023-04-23T18:20:58.283Z,3.90
2023-04-23T18:24:08.141Z,4.38
2023-04-23T18:26:35.204Z,3.75
2023-04-23T18:29:02.243Z,4.07
2023-04-23T18:31:29.552Z,3.45
2023-04-23T18:34:03.850Z,3.90
2023-04-23T18:36:33.132Z,4.07
2023-04-23T18:39:00.426Z,4.07
2023-04-23T18:41:31.062Z,4.10
2023-04-23T18:44:00.166Z,4.25
2023-04-23T18:46:30.361Z,3.72
2023-04-23T18:49:07.210Z,3.85
2023-04-23T18:51:43.208Z,4.18
2023-04-23T18:54:14.957Z,3.92
2023-04-23T18:56:42.238Z,4.00
2023-04-23T18:59:09.444Z,4.13
2023-04-23T19:01:36.667Z,4.57
2023-04-23T19:04:03.884Z,4.20
2023-04-23T19:06:31.535Z,4.63
2023-04-23T19:08:59.297Z,4.00
2023-04-23T19:11:30.345Z,3.80
2023-04-23T19:13:57.499Z,4.47
2023-04-23T19:16:24.545Z,4.35
2023-04-23T19:18:51.584Z,3.80
2023-04-23T19:21:18.714Z,4.18
2023-04-23T19:23:46.182Z,3.70
2023-04-23T19:26:46.042Z,3.80
2023-04-23T19:29:13.247Z,4.22
2023-04-23T19:31:40.358Z,4.25
2023-04-23T19:34:07.733Z,4.30
2023-04-23T19:36:34.949Z,3.38
2023-04-23T19:39:02.215Z,4.20
2023-04-23T19:41:29.306Z,3.70
2023-04-23T19:43:56.487Z,3.55
2023-04-23T19:46:23.541Z,3.30
2023-04-23T19:48:50.591Z,3.47
2023-04-23T19:51:19.753Z,4.15
2023-04-23T19:53:46.809Z,3.67
2023-04-23T19:56:15.266Z,3.42
2023-04-23T19:58:42.732Z,4.30
2023-04-23T20:01:10.767Z,4.40
2023-04-23T20:03:38.051Z,3.30
2023-04-23T20:06:05.218Z,3.00
2023-04-23T20:08:42.051Z,3.35
2023-04-23T20:11:11.924Z,3.22
2023-04-23T20:13:38.993Z,3.38
2023-04-23T20:16:05.966Z,3.70
2023-04-23T20:18:35.756Z,2.50
2023-04-23T20:21:02.875Z,3.25
2023-04-23T20:23:29.871Z,3.35
2023-04-23T20:26:28.452Z,3.38
2023-04-23T20:28:55.692Z,3.40
2023-04-23T20:31:22.903Z,2.85
2023-04-23T20:33:50.025Z,3.45
2023-04-23T20:36:17.214Z,4.03
2023-04-23T20:39:53.578Z,3.22
2023-04-23T20:42:21.434Z,2.78
2023-04-23T20:44:49.090Z,4.00
2023-04-23T20:47:16.596Z,3.25
2023-04-23T20:49:44.086Z,3.95
2023-04-23T20:52:13.596Z,3.17
2023-04-23T20:54:40.754Z,3.65
2023-04-23T20:57:07.934Z,3.50
2023-04-23T20:59:35.054Z,3.88
2023-04-23T21:02:02.136Z,3.20
2023-04-23T21:04:29.716Z,2.85
2023-04-23T21:06:56.990Z,4.13
2023-04-23T21:09:24.023Z,3.65
2023-04-23T21:11:51.267Z,3.88
2023-04-23T21:14:18.425Z,4.50
2023-04-23T21:16:45.456Z,5.53
2023-04-23T21:20:21.459Z,5.20
2023-04-23T21:22:48.531Z,4.38
2023-04-23T21:25:15.513Z,4.65
2023-04-23T21:27:46.005Z,3.92
2023-04-23T21:30:35.298Z,4.55
2023-04-23T21:33:02.335Z,3.60
2023-04-23T21:35:29.621Z,3.90
2023-04-23T21:37:56.675Z,3.47
2023-04-23T21:40:29.262Z,2.58
2023-04-23T21:42:56.418Z,3.00
2023-04-23T21:45:24.041Z,3.10
2023-04-23T21:47:51.725Z,3.63
2023-04-23T21:50:19.135Z,2.80
2023-04-23T21:52:46.267Z,2.90
2023-04-23T21:55:13.837Z,3.15
2023-04-23T21:57:40.850Z,3.00
2023-04-23T22:00:11.393Z,3.00
2023-04-23T22:02:46.764Z,3.58
2023-04-23T22:05:17.175Z,3.92
2023-04-23T22:07:44.752Z,3.67
2023-04-23T22:10:13.239Z,3.70
2023-04-23T22:12:41.476Z,3.20
2023-04-23T22:15:11.032Z,3.55
2023-04-23T22:17:39.151Z,3.33
2023-04-23T22:20:08.036Z,3.67
2023-04-23T22:22:36.207Z,3.65
2023-04-23T22:25:07.938Z,3.15
2023-04-23T22:27:36.590Z,3.00
2023-04-23T22:30:08.147Z,3.30
2023-04-23T22:32:36.277Z,3.40
2023-04-23T22:35:04.075Z,3.80
2023-04-23T22:37:34.316Z,3.20
2023-04-23T22:40:01.704Z,3.63
2023-04-23T22:42:28.693Z,3.38
2023-04-23T22:44:55.755Z,2.75
2023-04-23T22:47:22.952Z,3.00
2023-04-23T22:49:50.197Z,2.97
2023-04-23T22:52:17.420Z,3.20
2023-04-23T22:55:54.444Z,2.65
2023-04-23T22:58:21.572Z,3.38
2023-04-23T23:00:48.692Z,3.28
2023-04-23T23:03:15.917Z,2.85
2023-04-23T23:05:43.126Z,3.30
2023-04-23T23:08:10.212Z,3.15
2023-04-23T23:10:37.244Z,2.80
2023-04-23T23:13:04.539Z,3.15
2023-04-23T23:15:31.743Z,3.25
2023-04-23T23:17:58.866Z,2.80
2023-04-23T23:20:26.606Z,2.70
2023-04-23T23:22:53.787Z,2.60
2023-04-23T23:25:20.970Z,3.08
2023-04-23T23:27:47.956Z,2.60
2023-04-23T23:30:15.758Z,2.53
2023-04-23T23:32:42.857Z,2.85
2023-04-23T23:35:10.118Z,3.05
2023-04-23T23:37:37.258Z,3.45
2023-04-23T23:40:05.846Z,3.38
2023-04-23T23:42:32.894Z,3.25
2023-04-23T23:45:31.976Z,3.92
2023-04-23T23:47:59.570Z,3.42
2023-04-23T23:50:26.723Z,3.70
2023-04-23T23:52:54.493Z,3.33
2023-04-23T23:55:21.564Z,3.63
2023-04-23T23:57:48.629Z,3.58
